Harvest Peace — V7VE7 — position and weather

sailwx.info

Track history (hours):
 
Tides and Currents Weather Stations Pressure Air Temp Water Temp Dewpoint Dewpoint Depression Visibility Wind Speed Wind Dir Waves Ship Positions

Harvest Peace

Last reported at 2016-Feb-01 02:32 UTC. Time now 2016-Feb-06 15:47 UTC.
Position N 41°57' W 009°51'.

Length 225 m; draft 14.1 m.

Type: Cargo ship. MMSI: 538004103.

Date/timePositionNaut miles runAvg speedWind from/ knotsBaromVisibWave heightAir tempDewpointWater temp
2016-Feb-01 02:32N 41°57' W 009°51'1212.1
2016-Feb-01 01:32N 41°45' W 009°56'1313.2
2016-Feb-01 00:33N 41°33' W 010°02'1312.1
2016-Jan-31 23:30N 41°21' W 010°08'1111.9
2016-Jan-31 22:33N 41°10' W 010°13'1312.6
2016-Jan-31 21:33N 40°58' W 010°18'1212.4
2016-Jan-31 20:33N 40°46' W 010°23'1211.5
2016-Jan-31 19:30N 40°35' W 010°28'1111.3
2016-Jan-31 18:33N 40°25' W 010°33'1212.2
2016-Jan-31 17:33N 40°13' W 010°39'1311.3
2016-Jan-31 16:23N 40°01' W 010°45'1112.9
2016-Jan-31 15:30N 39°50' W 010°49'1111.4
2016-Jan-31 14:33N 39°40' W 010°54'1212.2
2016-Jan-31 13:33N 39°28' W 010°59'  
2016-Jan-29 06:22N 29°09' W 015°19'1012.6
2016-Jan-29 05:33N 28°59' W 015°23'1312.7
2016-Jan-29 04:33N 28°47' W 015°28'1313.0
2016-Jan-29 03:33N 28°37' W 015°38'1313.0
2016-Jan-29 02:33N 28°28' W 015°48'1313.0
2016-Jan-29 01:33N 28°18' W 015°57'1613.0
2016-Jan-29 00:19N 28°06' W 016°09'1012.7
2016-Jan-28 23:34N 27°58' W 016°16'1312.5
2016-Jan-28 22:30N 27°46' W 016°23'  
Track history (hours):
 
Tides and Currents Weather Stations Pressure Air Temp Water Temp Dewpoint Dewpoint Depression Visibility Wind Speed Wind Dir Waves Ship Positions

Harvest Peace

Last reported at 2016-Feb-01 02:32 UTC. Time now 2016-Feb-06 15:47 UTC.
Position N 41°57' W 009°51'.

Length 225 m; draft 14.1 m.

Type: Cargo ship. MMSI: 538004103.

Date/timePositionNaut miles runAvg speedWind from/ knotsBaromVisibWave heightAir tempDewpointWater temp
2016-Feb-01 02:32N 41°57' W 009°51'1212.1
2016-Feb-01 01:32N 41°45' W 009°56'1313.2
2016-Feb-01 00:33N 41°33' W 010°02'1312.1
2016-Jan-31 23:30N 41°21' W 010°08'1111.9
2016-Jan-31 22:33N 41°10' W 010°13'1312.6
2016-Jan-31 21:33N 40°58' W 010°18'1212.4
2016-Jan-31 20:33N 40°46' W 010°23'1211.5
2016-Jan-31 19:30N 40°35' W 010°28'1111.3
2016-Jan-31 18:33N 40°25' W 010°33'1212.2
2016-Jan-31 17:33N 40°13' W 010°39'1311.3
2016-Jan-31 16:23N 40°01' W 010°45'1112.9
2016-Jan-31 15:30N 39°50' W 010°49'1111.4
2016-Jan-31 14:33N 39°40' W 010°54'1212.2
2016-Jan-31 13:33N 39°28' W 010°59'  
2016-Jan-29 06:22N 29°09' W 015°19'1012.6
2016-Jan-29 05:33N 28°59' W 015°23'1312.7
2016-Jan-29 04:33N 28°47' W 015°28'1313.0
2016-Jan-29 03:33N 28°37' W 015°38'1313.0
2016-Jan-29 02:33N 28°28' W 015°48'1313.0
2016-Jan-29 01:33N 28°18' W 015°57'1613.0
2016-Jan-29 00:19N 28°06' W 016°09'1012.7
2016-Jan-28 23:34N 27°58' W 016°16'1312.5
2016-Jan-28 22:30N 27°46' W 016°23'  

Dump ship's entire track history